Time;durP1;ratioP1;P1;durP2;ratioP2;P2;SDS_P1;SDS_P2;PMS_P1;PMS_P2;Temp;Humidity;BMP_temperature;BMP_pressure;BME280_temperature;BME280_humidity;BME280_pressure;Samples;Min_cycle;Max_cycle;Signal;HPM_P1;HPM_P2
2024/02/25 15:10:54;;;;;;;0.20;0.20;;;9.70;91.70;;;;;;5150931;27;20180;-72
2024/02/25 15:13:19;;;;;;;0.30;0.30;;;9.50;92.40;;;;;;5139492;28;20084;-73
2024/02/25 15:15:45;;;;;;;0.22;0.22;;;9.50;92.80;;;;;;5132542;28;20035;-72
2024/02/25 15:18:11;;;;;;;0.50;0.30;;;9.50;93.50;;;;;;5111356;28;20039;-72
2024/02/25 15:20:37;;;;;;;0.40;0.40;;;9.50;94.10;;;;;;5129967;28;20481;-73
2024/02/25 15:23:06;;;;;;;0.47;0.47;;;9.60;94.70;;;;;;5130164;28;20047;-72
2024/02/25 15:25:33;;;;;;;0.55;0.40;;;9.70;95.00;;;;;;5129600;28;20042;-73
2024/02/25 15:27:59;;;;;;;1.75;0.45;;;9.90;95.30;;;;;;5130116;28;20039;-72
2024/02/25 15:30:24;;;;;;;0.40;0.40;;;9.90;95.40;;;;;;5129667;28;20176;-73
2024/02/25 15:32:50;;;;;;;0.50;0.50;;;10.10;95.60;;;;;;5129451;28;20126;-72
2024/02/25 15:35:19;;;;;;;1.67;0.40;;;10.20;95.60;;;;;;5111096;28;20068;-73
2024/02/25 15:37:45;;;;;;;0.52;0.50;;;10.30;95.60;;;;;;5111838;28;20119;-72
2024/02/25 15:40:11;;;;;;;0.50;0.50;;;10.40;95.60;;;;;;5129334;28;20078;-73
2024/02/25 15:42:39;;;;;;;1.00;0.52;;;10.60;95.50;;;;;;5129738;28;20105;-73
2024/02/25 15:45:06;;;;;;;0.20;0.20;;;10.60;95.30;;;;;;5129584;28;20047;-73
2024/02/25 15:47:33;;;;;;;0.35;0.30;;;10.70;95.40;;;;;;5109619;28;20044;-73
2024/02/25 15:49:58;;;;;;;0.25;0.20;;;10.70;95.40;;;;;;5094196;28;20414;-73
2024/02/25 15:52:24;;;;;;;0.30;0.30;;;10.70;95.30;;;;;;5110838;28;20141;-73
2024/02/25 15:54:50;;;;;;;0.20;0.20;;;10.70;95.20;;;;;;5129132;28;20035;-72
2024/02/25 15:57:16;;;;;;;0.40;0.30;;;10.60;95.10;;;;;;5093389;28;20031;-72
2024/02/25 15:59:42;;;;;;;0.38;0.30;;;10.50;95.20;;;;;;5093866;28;20040;-73
2024/02/25 16:02:08;;;;;;;0.30;0.30;;;10.50;95.30;;;;;;5094012;28;20051;-73
2024/02/25 16:04:36;;;;;;;0.30;0.20;;;10.40;95.30;;;;;;5092326;28;20035;-73
2024/02/25 16:07:03;;;;;;;0.32;0.30;;;10.60;95.20;;;;;;5129122;28;20477;-73
2024/02/25 16:09:31;;;;;;;0.17;0.17;;;10.50;95.00;;;;;;5091958;28;20512;-73
2024/02/25 16:11:57;;;;;;;0.10;0.10;;;10.40;95.00;;;;;;5110484;28;20028;-73
2024/02/25 16:14:23;;;;;;;0.30;0.15;;;10.30;95.00;;;;;;5093685;28;20074;-73
2024/02/25 16:16:48;;;;;;;0.10;0.10;;;10.20;95.10;;;;;;5091069;28;20052;-73
2024/02/25 16:19:14;;;;;;;0.20;0.20;;;10.00;95.10;;;;;;5091514;28;20035;-73
2024/02/25 16:21:40;;;;;;;0.10;0.10;;;10.00;95.20;;;;;;5100205;28;20051;-73
2024/02/25 16:24:06;;;;;;;0.10;0.10;;;9.80;95.30;;;;;;5079953;28;20491;-73
2024/02/25 16:26:32;;;;;;;0.10;0.10;;;9.70;95.40;;;;;;5115114;28;20396;-73
2024/02/25 16:28:57;;;;;;;0.10;0.10;;;9.70;95.50;;;;;;5114953;28;20503;-72
2024/02/25 16:31:24;;;;;;;0.20;0.20;;;9.50;95.40;;;;;;5097399;28;20043;-73
2024/02/25 16:33:49;;;;;;;0.30;0.20;;;9.40;95.40;;;;;;5115022;28;20039;-73
2024/02/25 16:36:18;;;;;;;0.38;0.17;;;9.30;95.40;;;;;;5115240;28;20031;-72
2024/02/25 16:38:44;;;;;;;0.10;0.10;;;9.20;95.50;;;;;;5079718;28;20039;-72
2024/02/25 16:41:19;;;;;;;0.10;0.10;;;9.20;95.50;;;;;;5114650;28;20426;-72
2024/02/25 16:43:46;;;;;;;0.43;0.17;;;9.10;95.50;;;;;;5096335;28;20035;-72
2024/02/25 16:46:12;;;;;;;0.10;0.10;;;8.90;95.50;;;;;;5115148;28;20047;-72
2024/02/25 16:48:38;;;;;;;0.20;0.20;;;8.90;95.50;;;;;;5114610;28;20063;-73
2024/02/25 16:51:04;;;;;;;0.10;0.10;;;8.70;95.50;;;;;;5097070;28;20149;-72
2024/02/25 16:53:30;;;;;;;0.70;0.20;;;8.70;95.60;;;;;;5096502;28;20035;-72
2024/02/25 16:55:55;;;;;;;0.10;0.10;;;8.60;95.50;;;;;;5115006;28;20109;-72
2024/02/25 16:58:21;;;;;;;0.10;0.10;;;8.60;95.50;;;;;;5115100;28;20031;-72
2024/02/25 17:00:47;;;;;;;0.10;0.10;;;8.50;95.50;;;;;;5114637;28;20492;-72
2024/02/25 17:03:12;;;;;;;0.10;0.10;;;8.50;95.50;;;;;;5114564;28;20047;-72
2024/02/25 17:05:38;;;;;;;0.10;0.10;;;8.40;95.50;;;;;;5096371;28;20126;-72
2024/02/25 17:08:05;;;;;;;0.20;0.20;;;8.30;95.50;;;;;;5114816;28;20039;-72
2024/02/25 17:10:31;;;;;;;0.13;0.10;;;8.20;95.50;;;;;;5114411;28;20054;-72
2024/02/25 17:12:59;;;;;;;0.40;0.22;;;8.10;95.50;;;;;;5114157;28;20031;-72
2024/02/25 17:15:27;;;;;;;0.10;0.10;;;8.10;95.50;;;;;;5114405;28;20035;-72
2024/02/25 17:17:52;;;;;;;0.20;0.20;;;8.00;95.50;;;;;;5114428;28;20027;-72
2024/02/25 17:20:18;;;;;;;0.17;0.17;;;7.90;95.50;;;;;;5095855;28;20039;-72
2024/02/25 17:22:46;;;;;;;0.30;0.20;;;7.80;95.50;;;;;;5114055;28;20040;-73
2024/02/25 17:25:12;;;;;;;0.30;0.20;;;7.80;95.50;;;;;;5114778;28;20027;-72
2024/02/25 17:27:38;;;;;;;0.43;0.30;;;7.70;95.50;;;;;;5077412;28;20051;-72
2024/02/25 17:30:08;;;;;;;0.32;0.20;;;7.70;95.50;;;;;;5114272;28;20069;-72
2024/02/25 17:32:34;;;;;;;0.22;0.22;;;7.60;95.50;;;;;;5112986;28;20039;-72
2024/02/25 17:35:00;;;;;;;0.20;0.20;;;7.50;95.50;;;;;;5114048;28;20118;-72
2024/02/25 17:37:26;;;;;;;0.15;0.15;;;7.60;95.60;;;;;;5114156;28;20039;-72
2024/02/25 17:39:51;;;;;;;0.55;0.20;;;7.50;95.50;;;;;;5095786;28;20505;-73
2024/02/25 17:42:17;;;;;;;0.10;0.10;;;7.40;95.50;;;;;;5095534;28;20059;-72
2024/02/25 17:44:43;;;;;;;0.30;0.30;;;7.40;95.50;;;;;;5113763;28;20048;-72
2024/02/25 17:47:08;;;;;;;0.20;0.20;;;7.40;95.50;;;;;;5114016;28;20051;-72
2024/02/25 17:49:34;;;;;;;0.22;0.22;;;7.30;95.50;;;;;;5113829;28;20044;-72
2024/02/25 17:52:00;;;;;;;0.20;0.10;;;7.30;95.50;;;;;;5095460;28;20047;-72
2024/02/25 17:54:26;;;;;;;0.20;0.20;;;7.20;95.50;;;;;;5114313;28;20047;-72
2024/02/25 17:56:52;;;;;;;0.40;0.30;;;7.20;95.50;;;;;;5113551;28;20035;-73
2024/02/25 17:59:18;;;;;;;0.20;0.20;;;7.10;95.50;;;;;;5113662;28;20043;-72
2024/02/25 18:01:45;;;;;;;0.22;0.20;;;7.10;95.50;;;;;;5113389;28;20047;-72
2024/02/25 18:04:11;;;;;;;0.43;0.20;;;7.10;95.50;;;;;;5113695;28;20466;-72
2024/02/25 18:06:39;;;;;;;0.20;0.20;;;7.10;95.50;;;;;;5113277;28;20067;-72
2024/02/25 18:09:06;;;;;;;0.30;0.25;;;7.00;95.50;;;;;;5094806;28;20573;-72
2024/02/25 18:11:32;;;;;;;0.65;0.40;;;7.00;95.50;;;;;;5060581;28;20044;-72
2024/02/25 18:13:58;;;;;;;0.32;0.30;;;7.00;95.50;;;;;;5095414;28;20085;-73
2024/02/25 18:16:24;;;;;;;0.35;0.35;;;6.90;95.40;;;;;;5078271;28;20035;-73
2024/02/25 18:18:50;;;;;;;0.20;0.20;;;6.90;95.40;;;;;;5078360;28;20030;-72
2024/02/25 18:21:15;;;;;;;0.40;0.40;;;6.90;95.40;;;;;;5095274;28;20039;-73
2024/02/25 18:23:41;;;;;;;0.20;0.20;;;6.90;95.40;;;;;;5076041;28;20035;-73
2024/02/25 18:26:10;;;;;;;0.77;0.35;;;6.90;95.40;;;;;;5078621;28;20401;-73
2024/02/25 18:28:36;;;;;;;0.57;0.30;;;6.90;95.40;;;;;;5095837;28;20092;-73
2024/02/25 18:31:02;;;;;;;0.20;0.20;;;6.80;95.40;;;;;;5095614;28;20047;-74
2024/02/25 18:33:30;;;;;;;0.30;0.30;;;6.80;95.40;;;;;;5095289;28;20549;-72
2024/02/25 18:35:57;;;;;;;0.38;0.38;;;6.80;95.40;;;;;;5061314;28;20047;-73
2024/02/25 18:38:23;;;;;;;0.40;0.40;;;6.80;95.40;;;;;;5094893;28;20572;-73
2024/02/25 18:40:49;;;;;;;0.95;0.28;;;6.80;95.30;;;;;;5094763;28;20116;-73
2024/02/25 18:43:16;;;;;;;0.30;0.20;;;6.90;95.40;;;;;;5077942;28;20374;-73
2024/02/25 18:45:43;;;;;;;0.60;0.40;;;6.80;95.30;;;;;;5077432;28;20108;-73
2024/02/25 18:48:10;;;;;;;0.22;0.22;;;6.80;95.30;;;;;;5113404;28;20097;-73
2024/02/25 18:50:36;;;;;;;0.38;0.20;;;6.90;95.30;;;;;;5094694;28;20043;-73
2024/02/25 18:53:02;;;;;;;0.40;0.30;;;6.90;95.30;;;;;;5092827;28;20044;-73
2024/02/25 18:55:27;;;;;;;0.30;0.30;;;6.90;95.20;;;;;;5094349;28;20046;-73
2024/02/25 18:57:53;;;;;;;0.60;0.50;;;7.00;95.20;;;;;;5076580;28;20047;-73
2024/02/25 19:00:19;;;;;;;0.20;0.20;;;7.00;95.20;;;;;;5077516;28;20130;-73
2024/02/25 19:02:45;;;;;;;0.32;0.32;;;7.00;95.20;;;;;;5094279;28;20487;-73
2024/02/25 19:05:12;;;;;;;0.43;0.30;;;7.00;95.20;;;;;;5077732;28;20081;-72
2024/02/25 19:07:37;;;;;;;0.40;0.35;;;7.00;95.10;;;;;;5094669;28;20441;-73
2024/02/25 19:10:04;;;;;;;0.98;0.52;;;6.90;95.10;;;;;;5112603;28;20044;-73
2024/02/25 19:12:29;;;;;;;0.73;0.47;;;7.00;95.10;;;;;;5094125;28;20081;-72
2024/02/25 19:14:55;;;;;;;0.47;0.47;;;7.00;95.30;;;;;;5059806;28;20067;-73
2024/02/25 19:17:22;;;;;;;0.50;0.50;;;7.00;95.00;;;;;;5060770;28;20040;-73
2024/02/25 19:19:48;;;;;;;0.45;0.43;;;7.00;95.00;;;;;;5091055;28;20461;-72
2024/02/25 19:22:15;;;;;;;0.47;0.47;;;6.90;95.00;;;;;;5077367;28;20040;-73
2024/02/25 19:24:41;;;;;;;1.23;0.32;;;6.90;95.00;;;;;;5112831;28;20104;-73
2024/02/25 19:27:07;;;;;;;0.43;0.30;;;6.90;95.00;;;;;;5094016;28;20434;-72
2024/02/25 19:29:32;;;;;;;0.85;0.60;;;7.00;95.00;;;;;;5112055;28;20396;-72
2024/02/25 19:32:00;;;;;;;0.45;0.30;;;6.90;95.00;;;;;;5094035;28;20100;-72
2024/02/25 19:34:27;;;;;;;0.75;0.50;;;6.90;95.00;;;;;;5094467;28;20099;-73
2024/02/25 19:36:54;;;;;;;0.60;0.40;;;7.00;95.00;;;;;;5094052;28;20089;-72
2024/02/25 19:39:20;;;;;;;0.30;0.30;;;6.90;95.00;;;;;;5078194;28;20141;-73
2024/02/25 19:41:46;;;;;;;0.65;0.47;;;6.80;94.90;;;;;;5094587;28;20114;-72
2024/02/25 19:44:13;;;;;;;0.40;0.40;;;6.80;94.90;;;;;;5059392;28;20382;-73
2024/02/25 19:46:40;;;;;;;0.82;0.63;;;6.80;94.90;;;;;;5112420;28;20055;-72
2024/02/25 19:49:06;;;;;;;0.77;0.50;;;6.80;94.90;;;;;;5060279;28;20072;-73
2024/02/25 19:51:33;;;;;;;0.43;0.30;;;6.70;94.90;;;;;;5060223;28;20032;-73
2024/02/25 19:53:59;;;;;;;0.40;0.40;;;6.70;94.90;;;;;;5112061;28;20377;-73
2024/02/25 19:56:24;;;;;;;0.50;0.43;;;6.70;94.90;;;;;;5077316;28;20043;-73
2024/02/25 19:58:51;;;;;;;0.50;0.40;;;6.70;94.90;;;;;;5063944;28;20043;-73
2024/02/25 20:01:17;;;;;;;0.55;0.50;;;6.70;94.90;;;;;;5080592;28;20119;-73
2024/02/25 20:03:42;;;;;;;1.15;0.60;;;6.70;94.90;;;;;;5080508;28;20044;-73
2024/02/25 20:06:08;;;;;;;1.02;0.43;;;6.70;94.90;;;;;;5061933;28;20032;-73
2024/02/25 20:08:34;;;;;;;1.60;0.70;;;6.70;94.90;;;;;;5063543;28;20036;-74
2024/02/25 20:11:00;;;;;;;0.80;0.68;;;6.60;94.90;;;;;;5063642;28;20392;-74
2024/02/25 20:13:26;;;;;;;0.47;0.38;;;6.60;94.80;;;;;;5080418;28;20032;-73
2024/02/25 20:15:52;;;;;;;1.27;0.80;;;6.60;94.80;;;;;;5094935;28;20036;-73
2024/02/25 20:18:18;;;;;;;0.70;0.60;;;6.60;94.90;;;;;;5115325;28;20051;-74
2024/02/25 20:20:43;;;;;;;0.93;0.63;;;6.60;94.80;;;;;;5115677;28;20047;-72
2024/02/25 20:23:10;;;;;;;0.63;0.57;;;6.60;94.80;;;;;;5115290;28;20465;-73
2024/02/25 20:25:37;;;;;;;0.50;0.50;;;6.60;94.80;;;;;;5096962;28;20042;-73
2024/02/25 20:28:04;;;;;;;0.40;0.40;;;6.70;94.90;;;;;;5096966;28;20142;-73
2024/02/25 20:30:29;;;;;;;0.73;0.50;;;6.70;94.80;;;;;;5096611;28;20075;-73
2024/02/25 20:32:57;;;;;;;0.68;0.55;;;6.70;94.80;;;;;;5114990;28;20067;-73
2024/02/25 20:35:24;;;;;;;0.73;0.40;;;6.70;94.80;;;;;;5096651;28;20559;-73
2024/02/25 20:37:51;;;;;;;0.43;0.40;;;6.70;94.80;;;;;;5115145;28;20416;-73
2024/02/25 20:40:17;;;;;;;0.45;0.45;;;6.70;94.70;;;;;;5115199;28;20046;-74
2024/02/25 20:42:43;;;;;;;0.98;0.50;;;6.70;94.70;;;;;;5114863;28;20047;-73
2024/02/25 20:45:10;;;;;;;0.43;0.40;;;6.70;94.70;;;;;;5114840;28;20177;-73
2024/02/25 20:47:36;;;;;;;0.90;0.45;;;6.80;94.70;;;;;;5115277;28;20470;-73
2024/02/25 20:50:03;;;;;;;0.43;0.43;;;6.80;94.60;;;;;;5114782;28;20048;-73
2024/02/25 20:52:30;;;;;;;0.75;0.63;;;6.80;94.60;;;;;;5114827;28;20036;-73
2024/02/25 20:54:56;;;;;;;0.35;0.30;;;6.80;94.60;;;;;;5096966;28;20046;-73
2024/02/25 20:57:27;;;;;;;0.98;0.70;;;6.80;94.60;;;;;;5079423;28;20051;-73
2024/02/25 20:59:53;;;;;;;0.65;0.52;;;6.80;94.60;;;;;;5114985;28;20054;-73
2024/02/25 21:02:18;;;;;;;0.55;0.40;;;6.70;94.50;;;;;;5114926;28;20039;-73
2024/02/25 21:04:44;;;;;;;0.40;0.30;;;6.70;94.50;;;;;;5114238;28;20050;-73
2024/02/25 21:07:10;;;;;;;0.68;0.47;;;6.70;94.50;;;;;;5114070;28;20047;-73
2024/02/25 21:09:36;;;;;;;1.15;0.70;;;6.70;94.50;;;;;;5114368;28;20035;-73
2024/02/25 21:12:02;;;;;;;0.50;0.50;;;6.60;94.50;;;;;;5113596;28;20131;-73
2024/02/25 21:14:28;;;;;;;0.98;0.65;;;6.60;94.50;;;;;;5114268;28;20499;-73
2024/02/25 21:16:54;;;;;;;0.73;0.40;;;6.50;94.50;;;;;;5114405;28;20038;-72
2024/02/25 21:19:19;;;;;;;0.60;0.50;;;6.60;94.60;;;;;;5114565;28;20062;-72
2024/02/25 21:21:47;;;;;;;0.60;0.60;;;6.50;94.60;;;;;;5114666;28;20036;-72
2024/02/25 21:24:12;;;;;;;0.60;0.60;;;6.50;94.60;;;;;;5114315;28;20055;-72
2024/02/25 21:26:38;;;;;;;0.88;0.60;;;6.50;94.60;;;;;;5114118;28;20039;-72
2024/02/25 21:29:04;;;;;;;1.33;0.50;;;6.40;94.60;;;;;;5096306;28;20044;-72
2024/02/25 21:31:29;;;;;;;0.90;0.70;;;6.40;94.60;;;;;;5096339;28;20040;-73
2024/02/25 21:33:56;;;;;;;0.70;0.70;;;6.40;94.60;;;;;;5114415;28;20489;-73
2024/02/25 21:36:22;;;;;;;0.93;0.60;;;6.40;94.60;;;;;;5113876;28;20523;-73
2024/02/25 21:38:48;;;;;;;0.88;0.60;;;6.40;94.50;;;;;;5114185;28;20040;-74
2024/02/25 21:41:14;;;;;;;0.70;0.60;;;6.40;94.50;;;;;;5096360;28;20043;-74
2024/02/25 21:43:40;;;;;;;0.73;0.60;;;6.40;94.50;;;;;;5095752;28;20046;-73
2024/02/25 21:46:05;;;;;;;0.52;0.45;;;6.40;94.50;;;;;;5113931;28;20039;-73
2024/02/25 21:48:31;;;;;;;0.82;0.73;;;6.40;94.50;;;;;;5113687;28;20090;-74
2024/02/25 21:50:57;;;;;;;0.63;0.40;;;6.40;94.50;;;;;;5114234;28;20075;-73
2024/02/25 21:53:25;;;;;;;0.52;0.47;;;6.40;94.50;;;;;;5095451;28;20039;-74
2024/02/25 21:55:51;;;;;;;0.90;0.70;;;6.40;94.50;;;;;;5097182;28;20036;-75
2024/02/25 21:58:17;;;;;;;0.80;0.60;;;6.30;94.40;;;;;;5095902;28;20039;-72
2024/02/25 22:00:43;;;;;;;0.70;0.68;;;6.30;94.40;;;;;;5094233;28;20046;-73
2024/02/25 22:03:09;;;;;;;0.80;0.55;;;6.40;94.50;;;;;;5079035;28;20036;-74
2024/02/25 22:05:34;;;;;;;0.70;0.60;;;6.40;94.50;;;;;;5061648;28;20035;-74
2024/02/25 22:08:00;;;;;;;0.63;0.47;;;6.40;94.40;;;;;;5078480;28;20104;-73
2024/02/25 22:10:26;;;;;;;0.50;0.50;;;6.40;94.40;;;;;;5095438;28;20066;-73
2024/02/25 22:12:55;;;;;;;0.90;0.60;;;6.40;94.40;;;;;;5113584;28;20062;-74
2024/02/25 22:15:20;;;;;;;1.17;0.57;;;6.40;94.40;;;;;;5061678;28;20063;-73
2024/02/25 22:17:46;;;;;;;0.60;0.40;;;6.40;94.30;;;;;;5078186;28;20047;-74
2024/02/25 22:20:12;;;;;;;0.40;0.40;;;6.40;94.30;;;;;;5094515;28;20509;-74
2024/02/25 22:22:38;;;;;;;0.93;0.68;;;6.40;94.30;;;;;;5079379;28;20048;-73
2024/02/25 22:25:04;;;;;;;1.20;0.60;;;6.40;94.30;;;;;;5061563;28;20080;-74
2024/02/25 22:27:30;;;;;;;0.85;0.60;;;6.40;94.30;;;;;;5078498;28;20035;-73
2024/02/25 22:29:56;;;;;;;0.50;0.50;;;6.40;94.30;;;;;;5078185;28;20043;-75
2024/02/25 22:32:22;;;;;;;1.83;0.63;;;6.40;94.20;;;;;;5078089;28;20076;-73
2024/02/25 22:34:48;;;;;;;0.80;0.65;;;6.40;94.20;;;;;;5093846;28;20481;-73
2024/02/25 22:37:14;;;;;;;0.75;0.60;;;6.30;94.20;;;;;;5093515;28;20051;-76
2024/02/25 22:39:39;;;;;;;0.65;0.57;;;6.30;94.20;;;;;;5082590;28;20044;-76
2024/02/25 22:42:05;;;;;;;0.60;0.50;;;6.30;94.20;;;;;;5095314;28;20378;-75
2024/02/25 22:44:31;;;;;;;0.40;0.40;;;6.30;94.20;;;;;;5061202;28;20369;-74
2024/02/25 22:46:57;;;;;;;0.70;0.55;;;6.20;94.20;;;;;;5113612;28;20040;-74
2024/02/25 22:49:23;;;;;;;0.43;0.38;;;6.30;94.20;;;;;;5094330;28;20065;-74
2024/02/25 22:51:48;;;;;;;0.68;0.68;;;6.20;94.20;;;;;;5093642;28;20040;-73
2024/02/25 22:54:14;;;;;;;0.93;0.55;;;6.20;94.20;;;;;;5077885;28;20039;-73
2024/02/25 22:56:40;;;;;;;1.02;0.52;;;6.20;94.50;;;;;;5060706;28;20063;-73
2024/02/25 22:59:07;;;;;;;0.95;0.57;;;6.30;94.20;;;;;;5077695;28;20066;-74
2024/02/25 23:01:35;;;;;;;0.70;0.50;;;6.20;94.20;;;;;;5112993;28;20047;-73
2024/02/25 23:04:02;;;;;;;0.40;0.40;;;6.20;94.20;;;;;;5059658;28;20032;-74
2024/02/25 23:06:29;;;;;;;1.05;0.60;;;6.20;94.50;;;;;;5077675;28;20036;-73
2024/02/25 23:08:56;;;;;;;0.60;0.43;;;6.20;94.20;;;;;;5060621;28;20055;-73
2024/02/25 23:11:22;;;;;;;0.82;0.60;;;6.20;94.10;;;;;;5113217;28;20046;-75
2024/02/25 23:13:48;;;;;;;0.73;0.60;;;6.20;94.10;;;;;;5061355;28;20123;-73
2024/02/25 23:16:14;;;;;;;0.50;0.50;;;6.10;94.10;;;;;;5077117;28;20127;-75
2024/02/25 23:18:40;;;;;;;0.60;0.40;;;6.20;94.10;;;;;;5060850;28;20032;-73
2024/02/25 23:21:05;;;;;;;1.10;0.70;;;6.20;94.10;;;;;;5077303;28;20568;-73
2024/02/25 23:23:31;;;;;;;0.82;0.60;;;6.10;94.10;;;;;;5092202;28;20040;-73
2024/02/25 23:25:59;;;;;;;1.13;0.70;;;6.10;94.10;;;;;;5060616;28;20489;-73
2024/02/25 23:28:25;;;;;;;0.30;0.30;;;6.20;94.10;;;;;;5093266;28;20043;-72
2024/02/25 23:30:51;;;;;;;0.90;0.40;;;6.10;94.10;;;;;;5076536;28;20032;-73
2024/02/25 23:33:17;;;;;;;0.57;0.55;;;6.20;94.10;;;;;;5098037;28;20032;-73
2024/02/25 23:35:42;;;;;;;0.55;0.50;;;6.10;94.10;;;;;;5116307;28;20040;-72
2024/02/25 23:38:08;;;;;;;1.63;0.80;;;6.20;94.10;;;;;;5116213;28;20032;-72
2024/02/25 23:40:34;;;;;;;0.80;0.60;;;6.10;94.10;;;;;;5115778;28;20046;-73
2024/02/25 23:43:00;;;;;;;0.95;0.60;;;6.20;94.10;;;;;;5097583;28;20105;-72
2024/02/25 23:45:25;;;;;;;0.65;0.43;;;6.10;94.10;;;;;;5080166;28;20491;-73
2024/02/25 23:47:52;;;;;;;0.50;0.50;;;6.10;94.00;;;;;;5063992;28;20043;-73
2024/02/25 23:50:19;;;;;;;0.73;0.57;;;6.10;94.00;;;;;;5116055;28;20035;-74
2024/02/25 23:52:45;;;;;;;1.08;0.52;;;6.10;94.00;;;;;;5080451;28;20495;-74
2024/02/25 23:55:11;;;;;;;0.80;0.65;;;6.10;94.10;;;;;;5079122;28;20032;-73
2024/02/25 23:57:36;;;;;;;0.50;0.50;;;6.00;94.00;;;;;;5063880;28;20480;-73
